Time;durP1;ratioP1;P1;durP2;ratioP2;P2;SDS_P1;SDS_P2;PMS_P1;PMS_P2;Temp;Humidity;BMP_temperature;BMP_pressure;BME280_temperature;BME280_humidity;BME280_pressure;Samples;Min_cycle;Max_cycle;Signal;HPM_P1;HPM_P2
2020/12/27 00:01:53;;;;;;;5.03;1.40;;;2.10;99.90;;;;;;10272484;28;20122;-63
2020/12/27 00:07:09;;;;;;;4.03;1.48;;;2.00;99.90;;;;;;10277780;28;20129;-63
2020/12/27 00:12:11;;;;;;;4.03;1.55;;;2.00;99.90;;;;;;10271118;28;20551;-63
2020/12/27 00:17:13;;;;;;;4.13;1.70;;;1.90;99.90;;;;;;10275167;28;20046;-63
2020/12/27 00:22:15;;;;;;;3.20;1.15;;;1.90;99.90;;;;;;10276914;28;20046;-63
2020/12/27 00:27:17;;;;;;;2.80;2.05;;;1.80;99.90;;;;;;10275900;28;20501;-63
2020/12/27 00:32:19;;;;;;;3.55;1.33;;;1.80;99.90;;;;;;10280586;28;20696;-63
2020/12/27 00:37:25;;;;;;;4.65;1.55;;;1.80;99.90;;;;;;10276685;28;20516;-63
2020/12/27 00:42:26;;;;;;;3.88;1.13;;;1.70;99.90;;;;;;10276266;28;20093;-63
2020/12/27 00:47:27;;;;;;;2.92;1.75;;;1.70;99.90;;;;;;10271170;28;20050;-63
2020/12/27 00:52:28;;;;;;;6.85;1.70;;;1.60;99.90;;;;;;10279246;28;20057;-63
2020/12/27 00:57:29;;;;;;;2.63;1.33;;;1.60;99.90;;;;;;10271478;28;20058;-63
2020/12/27 01:02:31;;;;;;;7.03;2.22;;;1.50;99.90;;;;;;10288873;28;20061;-63
2020/12/27 01:07:42;;;;;;;4.20;1.55;;;1.50;99.90;;;;;;10276347;28;20054;-63
2020/12/27 01:12:45;;;;;;;5.88;2.08;;;1.50;99.90;;;;;;10260773;28;20053;-63
2020/12/27 01:17:46;;;;;;;5.13;2.10;;;1.50;99.90;;;;;;10281205;28;20511;-63
2020/12/27 01:22:47;;;;;;;7.10;2.35;;;1.50;99.90;;;;;;10275342;28;20050;-63
2020/12/27 01:27:49;;;;;;;4.80;2.67;;;1.60;99.90;;;;;;10273832;28;20049;-63
2020/12/27 01:32:50;;;;;;;4.15;1.80;;;1.60;99.90;;;;;;10277816;28;20054;-63
2020/12/27 01:38:05;;;;;;;5.40;2.75;;;1.60;99.90;;;;;;10277310;28;20257;-63
2020/12/27 01:43:06;;;;;;;4.93;2.60;;;1.50;99.90;;;;;;10274700;28;20055;-63
2020/12/27 01:48:12;;;;;;;9.40;2.95;;;1.50;99.90;;;;;;10274486;28;20065;-63
2020/12/27 01:53:13;;;;;;;6.05;3.50;;;1.50;99.90;;;;;;10276074;28;20884;-63
2020/12/27 01:58:19;;;;;;;10.10;3.97;;;1.40;99.90;;;;;;10270857;28;20054;-63
2020/12/27 02:03:21;;;;;;;8.82;3.47;;;1.40;99.90;;;;;;10263457;28;20059;-63
2020/12/27 02:08:22;;;;;;;7.20;3.63;;;1.40;99.90;;;;;;10283542;28;20066;-64
2020/12/27 02:13:23;;;;;;;11.35;3.65;;;1.40;99.90;;;;;;10290340;28;20054;-63
2020/12/27 02:18:25;;;;;;;4.95;3.05;;;1.40;99.90;;;;;;10280454;28;20058;-63
2020/12/27 02:23:26;;;;;;;6.88;3.60;;;1.40;99.90;;;;;;10283397;28;20046;-63
2020/12/27 02:28:28;;;;;;;7.80;3.47;;;1.30;99.90;;;;;;10281379;28;20788;-63
2020/12/27 02:33:29;;;;;;;8.35;3.67;;;1.30;99.90;;;;;;10281097;28;20046;-63
2020/12/27 02:38:40;;;;;;;5.82;3.33;;;1.30;99.90;;;;;;10280548;28;20061;-63
2020/12/27 02:43:44;;;;;;;7.15;3.22;;;1.30;99.90;;;;;;10282583;28;20097;-63
2020/12/27 02:48:45;;;;;;;5.72;3.33;;;1.40;99.90;;;;;;10283414;28;20081;-63
2020/12/27 02:53:50;;;;;;;7.50;3.97;;;1.30;99.90;;;;;;10283401;28;20062;-63
2020/12/27 02:58:54;;;;;;;4.75;3.03;;;1.40;99.90;;;;;;10275983;28;20050;-63
2020/12/27 03:03:55;;;;;;;7.63;4.40;;;1.30;99.90;;;;;;10279569;28;20049;-63
2020/12/27 03:09:03;;;;;;;5.82;3.53;;;1.20;99.90;;;;;;10279254;28;20065;-63
2020/12/27 03:14:06;;;;;;;7.47;3.63;;;1.30;99.90;;;;;;10280719;28;20062;-63
2020/12/27 03:19:08;;;;;;;8.75;3.30;;;1.20;99.90;;;;;;10279449;28;20497;-64
2020/12/27 03:24:09;;;;;;;8.73;4.20;;;1.10;99.90;;;;;;10276053;28;20507;-63
2020/12/27 03:29:10;;;;;;;6.97;2.95;;;1.10;99.90;;;;;;10278465;28;20058;-63
2020/12/27 03:34:12;;;;;;;7.03;3.75;;;1.10;99.90;;;;;;10275668;28;20063;-63
2020/12/27 03:39:18;;;;;;;7.47;2.92;;;1.00;99.90;;;;;;10271061;28;20421;-63
2020/12/27 03:44:20;;;;;;;11.80;3.08;;;1.00;99.90;;;;;;10279087;28;20042;-63
2020/12/27 03:49:21;;;;;;;9.73;3.30;;;1.00;99.90;;;;;;10275112;28;20050;-63
2020/12/27 03:54:22;;;;;;;7.85;3.25;;;1.00;99.90;;;;;;10274128;28;20088;-63
2020/12/27 03:59:23;;;;;;;8.45;3.13;;;1.00;99.90;;;;;;10274402;28;20065;-63
2020/12/27 04:04:25;;;;;;;6.50;3.40;;;1.00;99.90;;;;;;10279869;28;20050;-63
2020/12/27 04:09:37;;;;;;;9.60;4.20;;;0.90;99.90;;;;;;10267311;28;20230;-63
2020/12/27 04:14:39;;;;;;;9.85;4.47;;;0.90;99.90;;;;;;10279551;28;20042;-63
2020/12/27 04:19:40;;;;;;;9.05;3.25;;;0.80;99.90;;;;;;10280585;28;20066;-63
2020/12/27 04:24:41;;;;;;;9.02;4.15;;;0.80;99.90;;;;;;10271849;28;20065;-63
2020/12/27 04:29:42;;;;;;;6.78;3.72;;;0.70;99.90;;;;;;10273283;28;20406;-63
2020/12/27 04:34:43;;;;;;;7.97;4.40;;;0.70;99.90;;;;;;10274244;28;20077;-63
2020/12/27 04:39:58;;;;;;;5.65;3.42;;;0.70;99.90;;;;;;10279484;28;20058;-63
2020/12/27 04:45:00;;;;;;;9.23;3.90;;;0.80;99.90;;;;;;10279976;28;20888;-63
2020/12/27 04:50:02;;;;;;;9.15;4.22;;;0.80;99.90;;;;;;10273388;28;20189;-63
2020/12/27 04:55:04;;;;;;;6.28;3.28;;;0.80;99.90;;;;;;10277904;28;20448;-63
2020/12/27 05:00:06;;;;;;;9.68;3.90;;;0.70;99.90;;;;;;10278070;28;20043;-63
2020/12/27 05:05:13;;;;;;;10.07;4.20;;;0.80;99.90;;;;;;10273607;28;20085;-63
2020/12/27 05:10:16;;;;;;;8.07;3.33;;;0.90;99.90;;;;;;10279470;28;20738;-63
2020/12/27 05:15:17;;;;;;;9.52;3.05;;;0.90;99.90;;;;;;10277347;28;20516;-63
2020/12/27 05:20:19;;;;;;;9.68;3.67;;;1.00;99.90;;;;;;10278314;28;20656;-63
2020/12/27 05:25:20;;;;;;;6.32;2.55;;;1.00;99.90;;;;;;10272068;28;20047;-63
2020/12/27 05:30:26;;;;;;;5.78;2.88;;;1.00;99.90;;;;;;10277681;28;20069;-63
2020/12/27 05:35:27;;;;;;;7.43;3.10;;;0.90;99.90;;;;;;10274136;28;20051;-63
2020/12/27 05:40:37;;;;;;;5.45;2.53;;;0.90;99.90;;;;;;10269669;28;20042;-63
2020/12/27 05:45:39;;;;;;;10.05;3.58;;;1.00;99.90;;;;;;10284752;28;20070;-63
2020/12/27 05:50:42;;;;;;;8.43;2.70;;;0.90;99.90;;;;;;10283550;28;20820;-63
2020/12/27 05:55:51;;;;;;;5.32;3.13;;;0.90;99.90;;;;;;10285361;28;20054;-64
2020/12/27 06:00:54;;;;;;;5.25;2.65;;;0.90;99.90;;;;;;10278618;28;20047;-63
2020/12/27 06:05:56;;;;;;;5.22;2.53;;;0.90;99.90;;;;;;10269455;28;20053;-63
2020/12/27 06:11:09;;;;;;;3.55;2.45;;;0.90;99.90;;;;;;10277585;28;20085;-63
2020/12/27 06:16:12;;;;;;;6.82;3.25;;;1.00;99.90;;;;;;10279020;28;20055;-63
2020/12/27 06:21:16;;;;;;;3.95;3.22;;;0.90;99.90;;;;;;10280865;28;20101;-63
2020/12/27 06:26:18;;;;;;;5.25;2.60;;;0.90;99.90;;;;;;10278636;28;20501;-63
2020/12/27 06:31:23;;;;;;;6.13;2.65;;;0.90;99.90;;;;;;10284636;28;20038;-63
2020/12/27 06:36:32;;;;;;;5.70;2.95;;;0.90;99.90;;;;;;10285491;28;20054;-63
2020/12/27 06:41:33;;;;;;;5.40;3.53;;;1.00;99.90;;;;;;10281061;28;20616;-63
2020/12/27 06:46:46;;;;;;;8.07;3.22;;;1.00;99.90;;;;;;10284697;28;20053;-63
2020/12/27 06:51:47;;;;;;;8.18;3.67;;;1.00;99.90;;;;;;10280349;28;20038;-63
2020/12/27 06:56:52;;;;;;;10.55;3.42;;;1.00;99.90;;;;;;10280206;28;20050;-63
2020/12/27 07:02:06;;;;;;;7.53;3.58;;;1.00;99.90;;;;;;10275269;28;20077;-63
2020/12/27 07:07:07;;;;;;;11.65;2.97;;;1.00;99.90;;;;;;10276933;28;20038;-63
2020/12/27 07:12:12;;;;;;;9.23;3.92;;;1.00;99.90;;;;;;10293962;28;20462;-63
2020/12/27 07:17:17;;;;;;;5.78;3.30;;;1.00;99.90;;;;;;10286877;28;20417;-64
2020/12/27 07:22:25;;;;;;;5.13;2.83;;;1.00;99.90;;;;;;10282741;28;20061;-63
2020/12/27 07:27:29;;;;;;;6.22;3.40;;;1.10;99.90;;;;;;10274456;28;20485;-63
2020/12/27 07:32:32;;;;;;;10.45;3.42;;;1.00;99.90;;;;;;10273457;28;20049;-63
2020/12/27 07:37:33;;;;;;;7.78;3.55;;;1.00;99.90;;;;;;10276645;28;20049;-63
2020/12/27 07:42:35;;;;;;;5.45;3.05;;;1.00;99.90;;;;;;10281351;28;20050;-63
2020/12/27 07:47:40;;;;;;;7.28;2.85;;;1.00;99.90;;;;;;10276364;28;20077;-63
2020/12/27 07:52:41;;;;;;;4.05;2.03;;;1.00;99.90;;;;;;10284183;28;20504;-62
2020/12/27 07:57:44;;;;;;;4.47;2.10;;;1.10;99.90;;;;;;10275949;28;20046;-63
2020/12/27 08:02:45;;;;;;;5.18;2.50;;;1.10;99.90;;;;;;10271830;28;20050;-63
2020/12/27 08:07:47;;;;;;;9.02;3.13;;;1.00;99.90;;;;;;10279328;28;20082;-63
2020/12/27 08:12:59;;;;;;;5.10;2.75;;;1.10;99.90;;;;;;10270885;28;20043;-63
2020/12/27 08:18:06;;;;;;;3.88;2.75;;;1.10;99.90;;;;;;10219962;28;20053;-63
2020/12/27 08:23:07;;;;;;;5.97;2.83;;;1.20;99.90;;;;;;10281128;28;20043;-63
2020/12/27 08:28:11;;;;;;;7.63;2.97;;;1.20;99.90;;;;;;10276409;28;20062;-63
2020/12/27 08:33:18;;;;;;;3.10;1.95;;;1.20;99.90;;;;;;10277771;28;20478;-62
2020/12/27 08:38:28;;;;;;;2.70;1.50;;;1.30;99.90;;;;;;10268911;28;20057;-63
2020/12/27 08:43:44;;;;;;;5.05;1.77;;;1.40;99.90;;;;;;10279164;28;20053;-63
2020/12/27 08:48:56;;;;;;;4.20;1.48;;;1.40;99.90;;;;;;10270313;28;20182;-62
2020/12/27 08:53:57;;;;;;;3.58;1.40;;;1.40;99.90;;;;;;10275363;28;20061;-63
2020/12/27 08:58:58;;;;;;;2.63;1.40;;;1.40;99.90;;;;;;10278709;28;20492;-63
2020/12/27 09:04:00;;;;;;;4.03;1.25;;;1.50;99.90;;;;;;10272059;28;20061;-62
2020/12/27 09:09:01;;;;;;;3.60;1.20;;;1.50;99.90;;;;;;10276973;28;20055;-62
2020/12/27 09:14:03;;;;;;;2.50;1.17;;;1.50;99.90;;;;;;10278874;28;20065;-64
2020/12/27 09:19:12;;;;;;;3.13;1.30;;;1.60;99.90;;;;;;10271866;28;20468;-62
2020/12/27 09:24:14;;;;;;;3.55;1.35;;;1.70;99.90;;;;;;10282416;28;20062;-62
2020/12/27 09:29:18;;;;;;;3.35;1.15;;;1.80;99.90;;;;;;10280405;28;20051;-62
2020/12/27 09:34:24;;;;;;;2.58;1.08;;;1.80;99.90;;;;;;10278156;28;20069;-62
2020/12/27 09:39:31;;;;;;;7.70;1.42;;;1.80;99.90;;;;;;10284904;28;20050;-62
2020/12/27 09:44:33;;;;;;;3.78;0.90;;;1.90;99.90;;;;;;10276109;28;20152;-63
2020/12/27 09:49:34;;;;;;;3.75;1.65;;;2.00;99.90;;;;;;10278708;28;20051;-63
2020/12/27 09:54:36;;;;;;;1.88;0.70;;;2.00;99.90;;;;;;10290179;28;20586;-63
2020/12/27 09:59:38;;;;;;;2.90;0.93;;;2.00;99.90;;;;;;10276035;28;20042;-63
2020/12/27 10:04:39;;;;;;;1.30;0.70;;;2.10;99.90;;;;;;10279751;28;20042;-63
2020/12/27 10:09:40;;;;;;;1.40;0.70;;;2.00;99.90;;;;;;10279969;28;20798;-63
2020/12/27 10:14:41;;;;;;;1.42;0.65;;;2.10;99.90;;;;;;10279506;28;20038;-63
2020/12/27 10:19:44;;;;;;;3.22;0.70;;;2.10;99.90;;;;;;10265125;28;20512;-63
2020/12/27 10:24:45;;;;;;;4.38;0.73;;;2.10;99.90;;;;;;10283980;28;20477;-63
2020/12/27 10:29:46;;;;;;;2.35;0.60;;;2.20;99.90;;;;;;10282627;28;20051;-64
2020/12/27 10:34:48;;;;;;;2.10;0.50;;;2.30;99.90;;;;;;10281427;28;20049;-64
2020/12/27 10:39:49;;;;;;;3.55;0.65;;;2.30;99.90;;;;;;10276720;28;20050;-63
2020/12/27 10:44:51;;;;;;;1.17;0.68;;;2.30;99.90;;;;;;10277754;28;20054;-63
2020/12/27 10:49:52;;;;;;;3.63;1.20;;;2.40;99.90;;;;;;10281411;28;20536;-62
2020/12/27 10:54:53;;;;;;;1.90;0.70;;;2.30;99.90;;;;;;10281868;28;20569;-63
2020/12/27 10:59:55;;;;;;;2.15;0.68;;;2.40;99.90;;;;;;10273351;28;20058;-65
2020/12/27 11:04:56;;;;;;;1.40;0.50;;;2.40;99.90;;;;;;10279427;28;20050;-64
2020/12/27 11:10:05;;;;;;;2.63;0.63;;;2.40;99.90;;;;;;10285011;28;20058;-66
2020/12/27 11:15:08;;;;;;;1.75;0.65;;;2.40;99.90;;;;;;10279711;28;22155;-64
2020/12/27 11:20:13;;;;;;;2.20;0.68;;;2.50;99.90;;;;;;10285050;28;20386;-63
2020/12/27 11:25:15;;;;;;;3.67;0.95;;;2.50;99.80;;;;;;10290007;28;20063;-64
2020/12/27 11:30:16;;;;;;;3.97;1.00;;;2.50;99.90;;;;;;10279867;28;20522;-64
2020/12/27 11:35:17;;;;;;;0.85;0.50;;;2.60;99.90;;;;;;10278965;28;20058;-64
2020/12/27 11:40:19;;;;;;;1.60;0.70;;;2.60;99.60;;;;;;10275464;28;20050;-64
2020/12/27 11:45:20;;;;;;;2.42;0.52;;;2.60;99.70;;;;;;10282521;28;20059;-63
2020/12/27 11:50:21;;;;;;;4.15;1.45;;;2.70;99.70;;;;;;10278402;28;20054;-63
2020/12/27 11:55:23;;;;;;;3.88;1.40;;;2.70;99.40;;;;;;10275693;28;20058;-64
2020/12/27 12:00:24;;;;;;;5.65;2.20;;;2.80;99.50;;;;;;10300914;28;20477;-64
2020/12/27 12:05:25;;;;;;;4.78;1.20;;;2.80;99.60;;;;;;10286091;28;20063;-63
2020/12/27 12:10:27;;;;;;;3.80;1.25;;;2.90;99.40;;;;;;10281596;28;20053;-63
2020/12/27 12:15:28;;;;;;;3.10;0.70;;;2.80;99.90;;;;;;10275516;28;20046;-64
2020/12/27 12:20:48;;;;;;;3.13;0.82;;;2.80;99.90;;;;;;10276891;28;20062;-64
2020/12/27 12:25:49;;;;;;;4.97;0.88;;;3.00;99.80;;;;;;10279796;28;20061;-64
2020/12/27 12:30:50;;;;;;;1.58;0.50;;;3.00;99.60;;;;;;10281828;28;20158;-63
2020/12/27 12:35:52;;;;;;;1.73;0.70;;;3.10;98.90;;;;;;10279344;28;20069;-64
2020/12/27 12:40:53;;;;;;;1.60;0.50;;;3.10;98.60;;;;;;10282363;28;20047;-64
2020/12/27 12:45:54;;;;;;;2.30;0.93;;;3.20;98.70;;;;;;10286134;28;20050;-63
2020/12/27 12:50:55;;;;;;;1.42;0.80;;;3.10;98.60;;;;;;10280702;28;20062;-64
2020/12/27 12:55:56;;;;;;;1.15;0.60;;;3.20;98.40;;;;;;10276808;28;20054;-64
2020/12/27 13:00:58;;;;;;;0.60;0.43;;;3.20;98.10;;;;;;10279286;28;20050;-63
2020/12/27 13:05:59;;;;;;;1.00;0.50;;;3.30;98.10;;;;;;10281262;28;20401;-64
2020/12/27 13:11:00;;;;;;;1.02;0.60;;;3.30;98.50;;;;;;10272976;28;20058;-65
2020/12/27 13:16:02;;;;;;;0.43;0.38;;;3.30;98.00;;;;;;10278325;28;20049;-64
2020/12/27 13:21:03;;;;;;;1.52;0.50;;;3.40;98.10;;;;;;10276436;28;20049;-65
2020/12/27 13:26:04;;;;;;;2.70;0.55;;;3.40;98.30;;;;;;10276075;28;20050;-64
2020/12/27 13:31:07;;;;;;;2.03;0.80;;;3.40;98.20;;;;;;10281231;28;20049;-64
2020/12/27 13:36:08;;;;;;;1.05;0.50;;;3.50;98.00;;;;;;10274827;28;20039;-64
2020/12/27 13:41:10;;;;;;;2.08;0.73;;;3.50;97.80;;;;;;10277428;28;20380;-64
2020/12/27 13:46:11;;;;;;;2.03;0.60;;;3.60;97.80;;;;;;10280501;28;20047;-65
2020/12/27 13:51:20;;;;;;;0.98;0.63;;;3.70;97.50;;;;;;10274708;28;20592;-64
2020/12/27 13:56:23;;;;;;;4.07;1.17;;;3.70;97.80;;;;;;10276494;28;20054;-64
2020/12/27 14:01:25;;;;;;;3.22;0.50;;;3.70;97.70;;;;;;10278350;28;20137;-64
2020/12/27 14:06:27;;;;;;;2.08;0.90;;;3.80;97.60;;;;;;10286171;28;20070;-62
2020/12/27 14:11:28;;;;;;;1.42;0.70;;;3.90;97.40;;;;;;10284382;28;20107;-62
2020/12/27 14:16:29;;;;;;;3.13;0.80;;;3.90;97.50;;;;;;10286584;28;20061;-62
2020/12/27 14:21:31;;;;;;;1.98;0.60;;;4.00;97.50;;;;;;10278809;28;20117;-64
2020/12/27 14:26:39;;;;;;;2.05;0.60;;;4.10;97.50;;;;;;10287956;28;20057;-62
2020/12/27 14:31:41;;;;;;;2.40;1.10;;;4.10;97.40;;;;;;10285947;28;20136;-62
2020/12/27 14:36:42;;;;;;;2.50;1.00;;;4.20;97.40;;;;;;10289130;28;20701;-62
2020/12/27 14:41:43;;;;;;;1.77;0.60;;;4.20;97.50;;;;;;10285540;28;20050;-61
2020/12/27 14:46:45;;;;;;;1.75;0.80;;;4.30;97.40;;;;;;10282825;28;20057;-62
2020/12/27 14:51:46;;;;;;;4.35;2.70;;;4.40;97.30;;;;;;10283105;28;20128;-62
2020/12/27 14:56:47;;;;;;;2.08;1.55;;;4.50;97.40;;;;;;10287728;28;20108;-62
2020/12/27 15:01:49;;;;;;;1.42;0.50;;;4.50;97.80;;;;;;10286261;28;20062;-62
2020/12/27 15:06:55;;;;;;;1.58;0.70;;;4.50;97.70;;;;;;10288861;28;20054;-64
2020/12/27 15:11:57;;;;;;;2.67;0.85;;;4.40;98.30;;;;;;10284607;28;20050;-65
2020/12/27 15:16:58;;;;;;;1.40;0.80;;;4.30;98.50;;;;;;10289653;28;20051;-65
2020/12/27 15:22:00;;;;;;;1.33;0.70;;;4.30;99.70;;;;;;10284989;28;20045;-65
2020/12/27 15:27:01;;;;;;;2.40;1.17;;;4.30;99.30;;;;;;10285595;28;20057;-65
2020/12/27 15:32:02;;;;;;;1.92;0.73;;;4.30;98.50;;;;;;10285609;28;20067;-65
2020/12/27 15:37:03;;;;;;;3.40;1.65;;;4.30;98.70;;;;;;10285980;28;20497;-64
2020/12/27 15:42:04;;;;;;;3.10;0.90;;;4.50;99.90;;;;;;10280053;28;20046;-66
2020/12/27 15:47:06;;;;;;;2.45;1.13;;;4.60;99.60;;;;;;10255472;28;20053;-62
2020/12/27 15:52:07;;;;;;;1.70;0.90;;;4.40;98.50;;;;;;10283690;28;20053;-66
2020/12/27 15:57:08;;;;;;;1.50;0.93;;;4.10;99.90;;;;;;10280866;28;20065;-67
2020/12/27 16:02:09;;;;;;;4.10;1.10;;;4.10;99.90;;;;;;10281979;28;20066;-66
2020/12/27 16:07:11;;;;;;;2.08;1.00;;;4.00;99.90;;;;;;10284826;28;20053;-66
2020/12/27 16:12:13;;;;;;;5.35;1.20;;;3.90;99.90;;;;;;10277803;28;20038;-67
2020/12/27 16:17:18;;;;;;;2.92;1.13;;;3.80;99.90;;;;;;10286229;28;20061;-67
2020/12/27 16:22:19;;;;;;;3.25;1.85;;;3.80;99.90;;;;;;10287096;28;20057;-67
2020/12/27 16:27:21;;;;;;;2.05;1.08;;;3.70;99.90;;;;;;10300704;28;20133;-68
2020/12/27 16:32:23;;;;;;;3.85;1.50;;;3.70;99.90;;;;;;10286125;28;20066;-66
2020/12/27 16:37:24;;;;;;;1.83;1.15;;;3.70;99.90;;;;;;10289729;28;20069;-66
2020/12/27 16:42:29;;;;;;;1.67;1.25;;;3.70;99.90;;;;;;10272056;28;20049;-67
2020/12/27 16:47:36;;;;;;;2.22;1.05;;;3.70;99.90;;;;;;10284364;28;20412;-66
2020/12/27 16:52:38;;;;;;;2.40;1.20;;;3.70;99.90;;;;;;10280639;28;20050;-66
2020/12/27 16:57:40;;;;;;;5.72;1.80;;;3.70;99.90;;;;;;10281000;28;20067;-65
2020/12/27 17:02:41;;;;;;;2.80;1.75;;;3.70;99.90;;;;;;10286011;28;20054;-66
2020/12/27 17:07:44;;;;;;;3.13;1.60;;;3.70;99.90;;;;;;10275711;28;20043;-66
2020/12/27 17:12:45;;;;;;;2.72;1.75;;;3.70;99.90;;;;;;10264870;28;20401;-66
2020/12/27 17:17:55;;;;;;;3.05;1.52;;;3.80;99.90;;;;;;10276467;28;20050;-65
2020/12/27 17:22:57;;;;;;;3.55;1.80;;;3.80;99.90;;;;;;10239270;28;20039;-65
2020/12/27 17:27:59;;;;;;;4.38;2.00;;;3.80;99.90;;;;;;10280614;28;20118;-65
2020/12/27 17:33:00;;;;;;;3.97;1.48;;;3.90;99.90;;;;;;10292987;28;20051;-65
2020/12/27 17:38:02;;;;;;;5.20;1.60;;;3.90;99.90;;;;;;10279710;28;20054;-65
2020/12/27 17:43:03;;;;;;;3.08;1.55;;;4.10;99.90;;;;;;10277540;28;20519;-65
2020/12/27 17:48:11;;;;;;;1.77;1.15;;;4.00;99.90;;;;;;10282970;28;20054;-65
2020/12/27 17:53:14;;;;;;;2.33;1.00;;;4.00;99.90;;;;;;10279892;28;20097;-65
2020/12/27 17:58:15;;;;;;;3.38;1.73;;;4.00;99.90;;;;;;10288126;28;20498;-66
2020/12/27 18:03:16;;;;;;;3.38;1.63;;;3.90;99.90;;;;;;10282668;28;20160;-66
2020/12/27 18:08:18;;;;;;;3.00;1.60;;;3.90;99.90;;;;;;10276674;28;20062;-65
2020/12/27 18:13:19;;;;;;;3.80;1.42;;;3.90;99.90;;;;;;10283001;28;20504;-65
2020/12/27 18:18:30;;;;;;;2.58;1.15;;;3.90;99.90;;;;;;10278726;28;20057;-65
2020/12/27 18:23:31;;;;;;;2.72;1.58;;;4.00;99.90;;;;;;10294694;28;20065;-66
2020/12/27 18:28:33;;;;;;;2.20;1.13;;;4.00;99.90;;;;;;10282298;28;20137;-67
2020/12/27 18:33:35;;;;;;;1.48;0.88;;;4.00;99.90;;;;;;10281300;28;20477;-67
2020/12/27 18:38:37;;;;;;;2.15;1.17;;;4.00;99.90;;;;;;10286854;28;20062;-65
2020/12/27 18:43:39;;;;;;;2.35;1.42;;;3.90;99.90;;;;;;10287846;28;20513;-65
2020/12/27 18:48:53;;;;;;;3.08;1.27;;;3.80;99.90;;;;;;10277236;28;20074;-65
2020/12/27 18:53:55;;;;;;;3.35;1.70;;;3.70;99.90;;;;;;10280672;28;20054;-66
2020/12/27 18:58:56;;;;;;;1.60;0.93;;;3.60;99.90;;;;;;10276273;28;20053;-67
2020/12/27 19:03:57;;;;;;;3.92;0.82;;;3.60;99.90;;;;;;10277128;28;20046;-66
2020/12/27 19:08:59;;;;;;;2.28;1.10;;;3.60;99.90;;;;;;10286513;28;20436;-66
2020/12/27 19:14:00;;;;;;;3.53;1.75;;;3.60;99.90;;;;;;10276839;28;20054;-66
2020/12/27 19:19:09;;;;;;;1.40;0.95;;;3.70;99.90;;;;;;10286068;28;20051;-67
2020/12/27 19:24:11;;;;;;;4.38;1.88;;;3.70;99.90;;;;;;10280772;28;20061;-65
2020/12/27 19:29:12;;;;;;;5.78;3.03;;;3.60;99.90;;;;;;10287829;28;20060;-65
2020/12/27 19:34:13;;;;;;;2.83;1.88;;;3.60;99.90;;;;;;10283087;28;20050;-67
2020/12/27 19:39:15;;;;;;;3.88;2.58;;;3.50;99.90;;;;;;10285811;28;20050;-66
2020/12/27 19:44:16;;;;;;;6.28;1.98;;;3.50;99.90;;;;;;10278747;28;20054;-67
2020/12/27 19:49:26;;;;;;;3.80;2.20;;;3.40;99.90;;;;;;10285121;28;20065;-66
2020/12/27 19:54:29;;;;;;;4.18;1.77;;;3.50;99.90;;;;;;10300858;28;20474;-65
2020/12/27 19:59:30;;;;;;;4.22;2.38;;;3.50;99.90;;;;;;10281681;28;20050;-67
2020/12/27 20:04:32;;;;;;;2.60;1.35;;;3.50;99.90;;;;;;10278519;28;20089;-66
2020/12/27 20:09:33;;;;;;;4.05;1.73;;;3.50;99.90;;;;;;10281175;28;20050;-65
2020/12/27 20:14:34;;;;;;;2.40;1.60;;;3.50;99.90;;;;;;10272694;28;20565;-66
2020/12/27 20:19:48;;;;;;;2.70;1.83;;;3.50;99.90;;;;;;10275929;28;20046;-65
2020/12/27 20:24:49;;;;;;;4.82;1.85;;;3.60;99.90;;;;;;10285568;28;20053;-65
2020/12/27 20:29:50;;;;;;;2.03;1.50;;;3.60;99.90;;;;;;10276648;28;20061;-67
2020/12/27 20:34:51;;;;;;;3.60;1.80;;;3.60;99.90;;;;;;10279678;28;20054;-65
2020/12/27 20:39:53;;;;;;;2.20;1.60;;;3.60;99.90;;;;;;10279177;28;20220;-65
2020/12/27 20:44:54;;;;;;;4.07;1.55;;;3.60;99.90;;;;;;10282350;28;20050;-66
2020/12/27 20:50:04;;;;;;;4.95;2.50;;;3.60;99.90;;;;;;10273298;28;20564;-66
2020/12/27 20:55:05;;;;;;;4.13;2.40;;;3.60;99.90;;;;;;10278438;28;20058;-65
2020/12/27 21:00:07;;;;;;;5.90;1.80;;;3.50;99.90;;;;;;10285131;28;20532;-65
2020/12/27 21:05:08;;;;;;;3.05;2.08;;;3.50;99.90;;;;;;10278452;28;20489;-65
2020/12/27 21:10:09;;;;;;;3.60;1.98;;;3.60;99.90;;;;;;10280055;28;20062;-66
2020/12/27 21:15:11;;;;;;;4.15;2.20;;;3.50;99.90;;;;;;10285117;28;20099;-66
2020/12/27 21:20:12;;;;;;;3.00;1.70;;;3.50;99.90;;;;;;10279174;28;20050;-66
2020/12/27 21:25:13;;;;;;;3.95;2.08;;;3.50;99.90;;;;;;10278482;28;20497;-66
2020/12/27 21:30:16;;;;;;;2.78;1.75;;;3.40;99.90;;;;;;10279457;28;20128;-66
2020/12/27 21:35:17;;;;;;;2.45;1.85;;;3.50;99.90;;;;;;10274017;28;20050;-67
2020/12/27 21:40:18;;;;;;;4.50;2.28;;;3.40;99.90;;;;;;10272031;28;20101;-66
2020/12/27 21:45:19;;;;;;;2.42;1.83;;;3.40;99.90;;;;;;10281622;28;20050;-66
2020/12/27 21:50:34;;;;;;;4.18;1.92;;;3.40;99.90;;;;;;10281452;28;20042;-66
2020/12/27 21:55:35;;;;;;;4.20;2.22;;;3.50;99.90;;;;;;10276927;28;20048;-66
2020/12/27 22:00:37;;;;;;;2.58;1.65;;;3.40;99.90;;;;;;10273873;28;20118;-67
2020/12/27 22:05:38;;;;;;;3.42;1.98;;;3.40;99.90;;;;;;10276053;28;20058;-66
2020/12/27 22:10:39;;;;;;;4.05;1.50;;;3.40;99.90;;;;;;10281581;28;20053;-66
2020/12/27 22:15:42;;;;;;;2.85;2.08;;;3.40;99.90;;;;;;10271454;28;20057;-66
2020/12/27 22:20:44;;;;;;;2.97;1.77;;;3.50;99.90;;;;;;10272209;28;20129;-66
2020/12/27 22:25:46;;;;;;;3.88;1.77;;;3.40;99.90;;;;;;10288851;28;20046;-67
2020/12/27 22:30:48;;;;;;;3.60;1.67;;;3.50;99.90;;;;;;10275378;28;23653;-66
2020/12/27 22:35:50;;;;;;;3.33;2.03;;;3.50;99.90;;;;;;10285568;28;20061;-66
2020/12/27 22:40:51;;;;;;;6.50;2.13;;;3.50;99.90;;;;;;10252041;28;20701;-66
2020/12/27 22:45:52;;;;;;;3.80;1.65;;;3.50;99.90;;;;;;10241529;28;20054;-66
2020/12/27 22:50:54;;;;;;;4.38;2.72;;;3.50;99.90;;;;;;10199605;28;20050;-66
2020/12/27 22:55:55;;;;;;;2.78;1.58;;;3.50;99.90;;;;;;10284929;28;20465;-67
2020/12/27 23:00:56;;;;;;;2.88;1.98;;;3.50;99.90;;;;;;10286426;28;20073;-66
2020/12/27 23:05:58;;;;;;;4.97;1.90;;;3.50;99.90;;;;;;10285319;28;20051;-66
2020/12/27 23:10:59;;;;;;;3.45;1.70;;;3.50;99.90;;;;;;10239400;28;20048;-66
2020/12/27 23:16:00;;;;;;;7.40;2.22;;;3.50;99.90;;;;;;10288439;28;20393;-65
2020/12/27 23:21:03;;;;;;;3.38;2.00;;;3.50;99.90;;;;;;10272173;28;20038;-65
2020/12/27 23:26:04;;;;;;;3.67;2.47;;;3.50;99.90;;;;;;10242805;28;20055;-66
2020/12/27 23:31:05;;;;;;;3.08;2.60;;;3.60;99.90;;;;;;10223483;28;20128;-65
2020/12/27 23:36:07;;;;;;;2.97;2.33;;;3.60;99.90;;;;;;10277008;28;20055;-65
2020/12/27 23:41:08;;;;;;;3.35;1.90;;;3.60;99.90;;;;;;10291268;28;20046;-66
2020/12/27 23:46:09;;;;;;;3.00;2.00;;;3.70;99.90;;;;;;10283461;28;20049;-65
2020/12/27 23:51:10;;;;;;;5.95;2.10;;;3.70;99.90;;;;;;10274361;28;20050;-66
2020/12/27 23:56:12;;;;;;;2.30;1.58;;;3.80;99.90;;;;;;10286746;28;20763;-65
